sensor_id;sensor_type;location;lat;lon;timestamp;P1;durP1;ratioP1;P2;durP2;ratioP2
34805;SDS011;65084;42.196;25.326;2023-11-18T00:01:30;5.03;;;3.60;;
34805;SDS011;65084;42.196;25.326;2023-11-18T00:03:58;4.32;;;3.92;;
34805;SDS011;65084;42.196;25.326;2023-11-18T00:06:25;4.85;;;3.92;;
34805;SDS011;65084;42.196;25.326;2023-11-18T00:08:53;4.78;;;3.97;;
34805;SDS011;65084;42.196;25.326;2023-11-18T00:11:20;5.75;;;4.53;;
34805;SDS011;65084;42.196;25.326;2023-11-18T00:13:50;4.85;;;4.45;;
34805;SDS011;65084;42.196;25.326;2023-11-18T00:16:17;5.30;;;4.10;;
34805;SDS011;65084;42.196;25.326;2023-11-18T00:18:45;5.72;;;4.40;;
34805;SDS011;65084;42.196;25.326;2023-11-18T00:21:12;16.33;;;4.85;;
34805;SDS011;65084;42.196;25.326;2023-11-18T00:23:39;6.20;;;5.35;;
34805;SDS011;65084;42.196;25.326;2023-11-18T00:26:06;7.90;;;4.75;;
34805;SDS011;65084;42.196;25.326;2023-11-18T00:28:36;4.90;;;4.60;;
34805;SDS011;65084;42.196;25.326;2023-11-18T00:31:04;5.40;;;4.60;;
34805;SDS011;65084;42.196;25.326;2023-11-18T00:33:32;5.60;;;4.95;;
34805;SDS011;65084;42.196;25.326;2023-11-18T00:35:59;6.05;;;5.07;;
34805;SDS011;65084;42.196;25.326;2023-11-18T00:38:27;6.43;;;5.22;;
34805;SDS011;65084;42.196;25.326;2023-11-18T00:40:55;5.43;;;4.93;;
34805;SDS011;65084;42.196;25.326;2023-11-18T00:43:22;5.88;;;4.80;;
34805;SDS011;65084;42.196;25.326;2023-11-18T00:45:50;5.18;;;4.65;;
34805;SDS011;65084;42.196;25.326;2023-11-18T00:48:19;6.25;;;4.40;;
34805;SDS011;65084;42.196;25.326;2023-11-18T00:50:46;5.03;;;4.15;;
34805;SDS011;65084;42.196;25.326;2023-11-18T00:53:13;5.63;;;3.65;;
34805;SDS011;65084;42.196;25.326;2023-11-18T00:55:40;4.65;;;4.25;;
34805;SDS011;65084;42.196;25.326;2023-11-18T00:58:08;3.60;;;3.30;;
34805;SDS011;65084;42.196;25.326;2023-11-18T01:00:35;3.30;;;2.90;;
34805;SDS011;65084;42.196;25.326;2023-11-18T01:03:02;3.17;;;2.83;;
34805;SDS011;65084;42.196;25.326;2023-11-18T01:05:31;3.30;;;3.00;;
34805;SDS011;65084;42.196;25.326;2023-11-18T01:07:59;3.67;;;3.00;;
34805;SDS011;65084;42.196;25.326;2023-11-18T01:10:27;4.57;;;2.75;;
34805;SDS011;65084;42.196;25.326;2023-11-18T01:12:55;3.40;;;2.72;;
34805;SDS011;65084;42.196;25.326;2023-11-18T01:15:23;4.20;;;2.63;;
34805;SDS011;65084;42.196;25.326;2023-11-18T01:17:50;4.00;;;3.20;;
34805;SDS011;65084;42.196;25.326;2023-11-18T01:20:17;4.00;;;2.60;;
34805;SDS011;65084;42.196;25.326;2023-11-18T01:22:48;3.95;;;3.00;;
34805;SDS011;65084;42.196;25.326;2023-11-18T01:25:16;4.40;;;3.15;;
34805;SDS011;65084;42.196;25.326;2023-11-18T01:27:44;8.30;;;5.28;;
34805;SDS011;65084;42.196;25.326;2023-11-18T01:30:12;7.00;;;5.53;;
34805;SDS011;65084;42.196;25.326;2023-11-18T01:32:39;13.95;;;6.78;;
34805;SDS011;65084;42.196;25.326;2023-11-18T01:35:07;5.70;;;5.10;;
34805;SDS011;65084;42.196;25.326;2023-11-18T01:37:36;4.68;;;4.00;;
34805;SDS011;65084;42.196;25.326;2023-11-18T01:40:05;4.70;;;4.10;;
34805;SDS011;65084;42.196;25.326;2023-11-18T01:42:33;4.65;;;4.18;;
34805;SDS011;65084;42.196;25.326;2023-11-18T01:45:00;4.68;;;4.18;;
34805;SDS011;65084;42.196;25.326;2023-11-18T01:47:29;11.60;;;5.43;;
34805;SDS011;65084;42.196;25.326;2023-11-18T01:49:58;6.43;;;4.95;;
34805;SDS011;65084;42.196;25.326;2023-11-18T01:52:25;7.22;;;5.63;;
34805;SDS011;65084;42.196;25.326;2023-11-18T01:54:55;5.85;;;5.35;;
34805;SDS011;65084;42.196;25.326;2023-11-18T01:57:24;7.95;;;5.75;;
34805;SDS011;65084;42.196;25.326;2023-11-18T01:59:52;11.73;;;5.95;;
34805;SDS011;65084;42.196;25.326;2023-11-18T02:02:19;6.85;;;5.80;;
34805;SDS011;65084;42.196;25.326;2023-11-18T02:04:47;7.47;;;6.40;;
34805;SDS011;65084;42.196;25.326;2023-11-18T02:07:14;7.32;;;6.45;;
34805;SDS011;65084;42.196;25.326;2023-11-18T02:09:41;6.53;;;5.90;;
34805;SDS011;65084;42.196;25.326;2023-11-18T02:12:13;6.65;;;6.03;;
34805;SDS011;65084;42.196;25.326;2023-11-18T02:14:44;8.52;;;6.72;;
34805;SDS011;65084;42.196;25.326;2023-11-18T02:17:12;7.35;;;6.55;;
34805;SDS011;65084;42.196;25.326;2023-11-18T02:19:41;7.78;;;6.40;;
34805;SDS011;65084;42.196;25.326;2023-11-18T02:22:09;6.15;;;5.55;;
34805;SDS011;65084;42.196;25.326;2023-11-18T02:24:37;6.25;;;5.30;;
34805;SDS011;65084;42.196;25.326;2023-11-18T02:27:07;6.57;;;5.25;;
34805;SDS011;65084;42.196;25.326;2023-11-18T02:29:37;5.65;;;5.25;;
34805;SDS011;65084;42.196;25.326;2023-11-18T02:32:07;5.13;;;4.47;;
34805;SDS011;65084;42.196;25.326;2023-11-18T02:34:39;7.53;;;4.75;;
34805;SDS011;65084;42.196;25.326;2023-11-18T02:37:08;5.65;;;4.50;;
34805;SDS011;65084;42.196;25.326;2023-11-18T02:39:38;4.25;;;3.85;;
34805;SDS011;65084;42.196;25.326;2023-11-18T02:42:09;5.05;;;3.97;;
34805;SDS011;65084;42.196;25.326;2023-11-18T02:44:37;4.43;;;3.95;;
34805;SDS011;65084;42.196;25.326;2023-11-18T02:47:05;4.18;;;3.88;;
34805;SDS011;65084;42.196;25.326;2023-11-18T02:49:33;4.93;;;4.07;;
34805;SDS011;65084;42.196;25.326;2023-11-18T02:52:01;5.18;;;3.78;;
34805;SDS011;65084;42.196;25.326;2023-11-18T02:54:30;5.05;;;3.72;;
34805;SDS011;65084;42.196;25.326;2023-11-18T02:56:57;3.15;;;2.95;;
34805;SDS011;65084;42.196;25.326;2023-11-18T02:59:26;3.30;;;3.10;;
34805;SDS011;65084;42.196;25.326;2023-11-18T03:01:55;8.02;;;3.05;;
34805;SDS011;65084;42.196;25.326;2023-11-18T03:04:23;3.38;;;2.92;;
34805;SDS011;65084;42.196;25.326;2023-11-18T03:06:50;6.15;;;3.45;;
34805;SDS011;65084;42.196;25.326;2023-11-18T03:09:17;4.03;;;2.75;;
34805;SDS011;65084;42.196;25.326;2023-11-18T03:11:45;3.47;;;2.65;;
34805;SDS011;65084;42.196;25.326;2023-11-18T03:14:12;1.95;;;1.85;;
34805;SDS011;65084;42.196;25.326;2023-11-18T03:16:41;1.83;;;1.73;;
34805;SDS011;65084;42.196;25.326;2023-11-18T03:19:08;6.63;;;1.52;;
34805;SDS011;65084;42.196;25.326;2023-11-18T03:21:35;1.27;;;1.15;;
34805;SDS011;65084;42.196;25.326;2023-11-18T03:24:04;1.40;;;1.30;;
34805;SDS011;65084;42.196;25.326;2023-11-18T03:26:31;3.90;;;1.48;;
34805;SDS011;65084;42.196;25.326;2023-11-18T03:28:59;1.15;;;1.10;;
34805;SDS011;65084;42.196;25.326;2023-11-18T03:31:26;2.55;;;1.02;;
34805;SDS011;65084;42.196;25.326;2023-11-18T03:33:55;2.60;;;1.30;;
34805;SDS011;65084;42.196;25.326;2023-11-18T03:36:22;0.90;;;0.90;;
34805;SDS011;65084;42.196;25.326;2023-11-18T03:38:50;1.10;;;1.00;;
34805;SDS011;65084;42.196;25.326;2023-11-18T03:41:18;0.77;;;0.77;;
34805;SDS011;65084;42.196;25.326;2023-11-18T03:43:45;0.98;;;0.82;;
34805;SDS011;65084;42.196;25.326;2023-11-18T03:46:13;0.73;;;0.73;;
34805;SDS011;65084;42.196;25.326;2023-11-18T03:48:40;0.80;;;0.77;;
34805;SDS011;65084;42.196;25.326;2023-11-18T03:51:10;5.25;;;1.02;;
34805;SDS011;65084;42.196;25.326;2023-11-18T03:53:38;1.00;;;0.80;;
34805;SDS011;65084;42.196;25.326;2023-11-18T03:56:07;0.85;;;0.85;;
34805;SDS011;65084;42.196;25.326;2023-11-18T03:58:35;0.82;;;0.82;;
34805;SDS011;65084;42.196;25.326;2023-11-18T04:01:03;0.90;;;0.77;;
34805;SDS011;65084;42.196;25.326;2023-11-18T04:03:31;0.85;;;0.60;;
34805;SDS011;65084;42.196;25.326;2023-11-18T04:05:58;0.80;;;0.80;;
34805;SDS011;65084;42.196;25.326;2023-11-18T04:08:27;0.80;;;0.75;;
34805;SDS011;65084;42.196;25.326;2023-11-18T04:10:55;2.20;;;1.20;;
34805;SDS011;65084;42.196;25.326;2023-11-18T04:13:23;1.92;;;0.85;;
34805;SDS011;65084;42.196;25.326;2023-11-18T04:15:50;2.22;;;1.25;;
34805;SDS011;65084;42.196;25.326;2023-11-18T04:18:17;1.63;;;1.00;;
34805;SDS011;65084;42.196;25.326;2023-11-18T04:20:46;0.40;;;0.40;;
34805;SDS011;65084;42.196;25.326;2023-11-18T04:23:13;0.77;;;0.70;;
34805;SDS011;65084;42.196;25.326;2023-11-18T04:25:42;0.40;;;0.40;;
34805;SDS011;65084;42.196;25.326;2023-11-18T04:28:10;0.50;;;0.50;;
34805;SDS011;65084;42.196;25.326;2023-11-18T04:30:37;0.50;;;0.50;;
34805;SDS011;65084;42.196;25.326;2023-11-18T04:33:04;3.72;;;0.73;;
34805;SDS011;65084;42.196;25.326;2023-11-18T04:35:31;1.63;;;0.50;;
34805;SDS011;65084;42.196;25.326;2023-11-18T04:37:59;0.50;;;0.50;;
34805;SDS011;65084;42.196;25.326;2023-11-18T04:40:27;0.45;;;0.40;;
34805;SDS011;65084;42.196;25.326;2023-11-18T04:42:55;0.43;;;0.32;;
34805;SDS011;65084;42.196;25.326;2023-11-18T04:45:23;0.45;;;0.38;;
34805;SDS011;65084;42.196;25.326;2023-11-18T04:47:50;0.60;;;0.47;;
34805;SDS011;65084;42.196;25.326;2023-11-18T04:50:19;1.77;;;0.50;;
34805;SDS011;65084;42.196;25.326;2023-11-18T04:52:47;0.30;;;0.30;;
34805;SDS011;65084;42.196;25.326;2023-11-18T04:55:14;1.25;;;0.60;;
34805;SDS011;65084;42.196;25.326;2023-11-18T04:57:41;0.40;;;0.40;;
34805;SDS011;65084;42.196;25.326;2023-11-18T05:00:12;0.68;;;0.57;;
34805;SDS011;65084;42.196;25.326;2023-11-18T05:02:42;0.85;;;0.65;;
34805;SDS011;65084;42.196;25.326;2023-11-18T05:05:12;1.10;;;0.60;;
34805;SDS011;65084;42.196;25.326;2023-11-18T05:07:40;1.02;;;0.60;;
34805;SDS011;65084;42.196;25.326;2023-11-18T05:10:08;0.50;;;0.50;;
34805;SDS011;65084;42.196;25.326;2023-11-18T05:12:36;0.80;;;0.55;;
34805;SDS011;65084;42.196;25.326;2023-11-18T05:15:05;0.82;;;0.82;;
34805;SDS011;65084;42.196;25.326;2023-11-18T05:17:34;3.67;;;0.63;;
34805;SDS011;65084;42.196;25.326;2023-11-18T05:20:01;0.75;;;0.70;;
34805;SDS011;65084;42.196;25.326;2023-11-18T05:22:29;0.63;;;0.63;;
34805;SDS011;65084;42.196;25.326;2023-11-18T05:24:56;1.52;;;1.20;;
34805;SDS011;65084;42.196;25.326;2023-11-18T05:27:23;2.03;;;0.85;;
34805;SDS011;65084;42.196;25.326;2023-11-18T05:29:51;1.33;;;0.80;;
34805;SDS011;65084;42.196;25.326;2023-11-18T05:32:20;1.25;;;0.82;;
34805;SDS011;65084;42.196;25.326;2023-11-18T05:34:49;1.45;;;0.60;;
34805;SDS011;65084;42.196;25.326;2023-11-18T05:37:18;3.83;;;0.80;;
34805;SDS011;65084;42.196;25.326;2023-11-18T05:39:46;1.65;;;1.48;;
34805;SDS011;65084;42.196;25.326;2023-11-18T05:42:18;3.13;;;0.50;;
34805;SDS011;65084;42.196;25.326;2023-11-18T05:44:46;0.73;;;0.70;;
34805;SDS011;65084;42.196;25.326;2023-11-18T05:47:14;1.55;;;0.70;;
34805;SDS011;65084;42.196;25.326;2023-11-18T05:49:41;1.15;;;0.80;;
34805;SDS011;65084;42.196;25.326;2023-11-18T05:52:10;0.70;;;0.70;;
34805;SDS011;65084;42.196;25.326;2023-11-18T05:54:38;0.88;;;0.88;;
34805;SDS011;65084;42.196;25.326;2023-11-18T05:57:05;1.20;;;1.15;;
34805;SDS011;65084;42.196;25.326;2023-11-18T05:59:32;0.90;;;0.90;;
34805;SDS011;65084;42.196;25.326;2023-11-18T06:01:59;1.30;;;1.20;;
34805;SDS011;65084;42.196;25.326;2023-11-18T06:04:28;1.55;;;1.40;;
34805;SDS011;65084;42.196;25.326;2023-11-18T06:06:56;1.40;;;1.30;;
34805;SDS011;65084;42.196;25.326;2023-11-18T06:09:25;3.50;;;1.20;;
34805;SDS011;65084;42.196;25.326;2023-11-18T06:11:53;1.83;;;1.25;;
34805;SDS011;65084;42.196;25.326;2023-11-18T06:14:20;2.10;;;1.58;;
34805;SDS011;65084;42.196;25.326;2023-11-18T06:16:48;3.10;;;2.80;;
34805;SDS011;65084;42.196;25.326;2023-11-18T06:19:15;4.00;;;2.13;;
34805;SDS011;65084;42.196;25.326;2023-11-18T06:21:43;2.35;;;2.00;;
34805;SDS011;65084;42.196;25.326;2023-11-18T06:24:11;5.35;;;2.53;;
34805;SDS011;65084;42.196;25.326;2023-11-18T06:26:41;1.90;;;1.80;;
34805;SDS011;65084;42.196;25.326;2023-11-18T06:29:08;2.10;;;2.00;;
34805;SDS011;65084;42.196;25.326;2023-11-18T06:31:35;12.07;;;7.28;;
34805;SDS011;65084;42.196;25.326;2023-11-18T06:34:02;4.90;;;4.50;;
34805;SDS011;65084;42.196;25.326;2023-11-18T06:36:30;10.05;;;9.18;;
34805;SDS011;65084;42.196;25.326;2023-11-18T06:38:57;5.40;;;5.00;;
34805;SDS011;65084;42.196;25.326;2023-11-18T06:41:24;3.40;;;3.20;;
34805;SDS011;65084;42.196;25.326;2023-11-18T06:44:00;4.72;;;4.43;;
34805;SDS011;65084;42.196;25.326;2023-11-18T06:46:34;29.08;;;26.15;;
34805;SDS011;65084;42.196;25.326;2023-11-18T06:49:04;7.20;;;6.47;;
34805;SDS011;65084;42.196;25.326;2023-11-18T06:51:33;3.90;;;3.60;;
34805;SDS011;65084;42.196;25.326;2023-11-18T06:54:03;6.78;;;3.92;;
34805;SDS011;65084;42.196;25.326;2023-11-18T06:56:34;12.88;;;11.63;;
34805;SDS011;65084;42.196;25.326;2023-11-18T06:59:04;9.18;;;8.45;;
34805;SDS011;65084;42.196;25.326;2023-11-18T07:01:31;12.85;;;11.55;;
34805;SDS011;65084;42.196;25.326;2023-11-18T07:03:59;3.28;;;3.08;;
34805;SDS011;65084;42.196;25.326;2023-11-18T07:06:26;2.97;;;2.42;;
34805;SDS011;65084;42.196;25.326;2023-11-18T07:08:54;4.70;;;2.60;;
34805;SDS011;65084;42.196;25.326;2023-11-18T07:11:25;9.40;;;4.60;;
34805;SDS011;65084;42.196;25.326;2023-11-18T07:13:53;5.53;;;4.25;;
34805;SDS011;65084;42.196;25.326;2023-11-18T07:16:24;22.35;;;17.27;;
34805;SDS011;65084;42.196;25.326;2023-11-18T07:18:51;26.60;;;20.20;;
34805;SDS011;65084;42.196;25.326;2023-11-18T07:21:18;9.77;;;7.57;;
34805;SDS011;65084;42.196;25.326;2023-11-18T07:23:46;3.35;;;3.05;;
34805;SDS011;65084;42.196;25.326;2023-11-18T07:26:13;2.83;;;2.63;;
34805;SDS011;65084;42.196;25.326;2023-11-18T07:28:40;3.65;;;2.80;;
34805;SDS011;65084;42.196;25.326;2023-11-18T07:31:09;11.13;;;6.53;;
34805;SDS011;65084;42.196;25.326;2023-11-18T07:33:38;6.70;;;5.93;;
34805;SDS011;65084;42.196;25.326;2023-11-18T07:36:06;3.70;;;3.40;;
34805;SDS011;65084;42.196;25.326;2023-11-18T07:38:36;6.28;;;2.83;;
34805;SDS011;65084;42.196;25.326;2023-11-18T07:41:03;2.83;;;2.63;;
34805;SDS011;65084;42.196;25.326;2023-11-18T07:43:33;2.72;;;2.53;;
34805;SDS011;65084;42.196;25.326;2023-11-18T07:46:02;4.70;;;2.20;;
34805;SDS011;65084;42.196;25.326;2023-11-18T07:48:32;2.15;;;2.05;;
34805;SDS011;65084;42.196;25.326;2023-11-18T07:51:01;2.28;;;2.08;;
34805;SDS011;65084;42.196;25.326;2023-11-18T07:53:29;2.70;;;2.20;;
34805;SDS011;65084;42.196;25.326;2023-11-18T07:55:56;2.88;;;2.47;;
34805;SDS011;65084;42.196;25.326;2023-11-18T07:58:24;2.50;;;2.30;;
34805;SDS011;65084;42.196;25.326;2023-11-18T08:00:52;3.25;;;2.10;;
34805;SDS011;65084;42.196;25.326;2023-11-18T08:03:20;2.33;;;2.13;;
34805;SDS011;65084;42.196;25.326;2023-11-18T08:05:47;7.05;;;4.53;;
34805;SDS011;65084;42.196;25.326;2023-11-18T08:08:17;2.72;;;2.40;;
34805;SDS011;65084;42.196;25.326;2023-11-18T08:10:45;5.43;;;4.57;;
34805;SDS011;65084;42.196;25.326;2023-11-18T08:13:13;26.27;;;10.52;;
34805;SDS011;65084;42.196;25.326;2023-11-18T08:15:41;7.90;;;3.42;;
34805;SDS011;65084;42.196;25.326;2023-11-18T08:18:10;8.00;;;6.10;;
34805;SDS011;65084;42.196;25.326;2023-11-18T08:20:37;18.85;;;12.85;;
34805;SDS011;65084;42.196;25.326;2023-11-18T08:23:05;71.75;;;59.40;;
34805;SDS011;65084;42.196;25.326;2023-11-18T08:25:33;60.00;;;45.08;;
34805;SDS011;65084;42.196;25.326;2023-11-18T08:28:02;14.13;;;9.43;;
34805;SDS011;65084;42.196;25.326;2023-11-18T08:30:29;4.78;;;2.58;;
34805;SDS011;65084;42.196;25.326;2023-11-18T08:32:59;7.03;;;3.38;;
34805;SDS011;65084;42.196;25.326;2023-11-18T08:35:26;5.32;;;3.08;;
34805;SDS011;65084;42.196;25.326;2023-11-18T08:37:54;1.73;;;1.60;;
34805;SDS011;65084;42.196;25.326;2023-11-18T08:40:21;2.90;;;1.40;;
34805;SDS011;65084;42.196;25.326;2023-11-18T08:42:52;2.05;;;1.65;;
34805;SDS011;65084;42.196;25.326;2023-11-18T08:45:21;1.60;;;1.50;;
34805;SDS011;65084;42.196;25.326;2023-11-18T08:47:52;2.47;;;1.70;;
34805;SDS011;65084;42.196;25.326;2023-11-18T08:50:20;2.85;;;1.67;;
34805;SDS011;65084;42.196;25.326;2023-11-18T08:52:49;3.45;;;1.40;;
34805;SDS011;65084;42.196;25.326;2023-11-18T08:55:19;4.55;;;1.52;;
34805;SDS011;65084;42.196;25.326;2023-11-18T08:57:47;2.40;;;1.48;;
34805;SDS011;65084;42.196;25.326;2023-11-18T09:00:24;1.50;;;1.33;;
34805;SDS011;65084;42.196;25.326;2023-11-18T09:03:18;1.40;;;1.27;;
34805;SDS011;65084;42.196;25.326;2023-11-18T09:06:00;1.33;;;0.90;;
34805;SDS011;65084;42.196;25.326;2023-11-18T09:08:29;2.17;;;1.38;;
34805;SDS011;65084;42.196;25.326;2023-11-18T09:11:00;1.30;;;1.23;;
34805;SDS011;65084;42.196;25.326;2023-11-18T09:13:30;3.83;;;1.20;;
34805;SDS011;65084;42.196;25.326;2023-11-18T09:15:59;1.90;;;1.50;;
34805;SDS011;65084;42.196;25.326;2023-11-18T09:18:27;1.95;;;1.48;;
34805;SDS011;65084;42.196;25.326;2023-11-18T09:20:55;2.83;;;2.35;;
34805;SDS011;65084;42.196;25.326;2023-11-18T09:23:24;6.68;;;2.53;;
34805;SDS011;65084;42.196;25.326;2023-11-18T09:25:52;3.22;;;1.95;;
34805;SDS011;65084;42.196;25.326;2023-11-18T09:28:20;1.92;;;1.17;;
34805;SDS011;65084;42.196;25.326;2023-11-18T09:30:48;1.42;;;1.20;;
34805;SDS011;65084;42.196;25.326;2023-11-18T09:33:24;6.22;;;0.95;;
34805;SDS011;65084;42.196;25.326;2023-11-18T09:35:54;2.53;;;1.27;;
34805;SDS011;65084;42.196;25.326;2023-11-18T09:38:24;4.47;;;1.33;;
34805;SDS011;65084;42.196;25.326;2023-11-18T09:40:54;1.00;;;1.00;;
34805;SDS011;65084;42.196;25.326;2023-11-18T09:43:21;2.92;;;1.40;;
34805;SDS011;65084;42.196;25.326;2023-11-18T09:45:49;2.72;;;1.50;;
34805;SDS011;65084;42.196;25.326;2023-11-18T09:48:20;1.85;;;1.70;;
34805;SDS011;65084;42.196;25.326;2023-11-18T09:50:52;2.20;;;1.50;;
34805;SDS011;65084;42.196;25.326;2023-11-18T09:53:20;2.33;;;1.55;;
34805;SDS011;65084;42.196;25.326;2023-11-18T09:55:53;2.75;;;1.20;;
34805;SDS011;65084;42.196;25.326;2023-11-18T09:58:25;2.70;;;1.50;;
34805;SDS011;65084;42.196;25.326;2023-11-18T10:00:57;3.17;;;1.52;;
34805;SDS011;65084;42.196;25.326;2023-11-18T10:03:27;1.73;;;0.98;;
34805;SDS011;65084;42.196;25.326;2023-11-18T10:05:56;7.60;;;2.25;;
34805;SDS011;65084;42.196;25.326;2023-11-18T10:08:30;9.80;;;3.85;;
34805;SDS011;65084;42.196;25.326;2023-11-18T10:10:57;3.88;;;2.47;;
34805;SDS011;65084;42.196;25.326;2023-11-18T10:13:33;7.25;;;3.67;;
34805;SDS011;65084;42.196;25.326;2023-11-18T10:16:06;3.08;;;2.10;;
34805;SDS011;65084;42.196;25.326;2023-11-18T10:18:33;1.92;;;1.55;;
34805;SDS011;65084;42.196;25.326;2023-11-18T10:21:03;6.47;;;2.38;;
34805;SDS011;65084;42.196;25.326;2023-11-18T10:23:33;1.25;;;1.00;;
34805;SDS011;65084;42.196;25.326;2023-11-18T10:26:02;4.65;;;2.35;;
34805;SDS011;65084;42.196;25.326;2023-11-18T10:28:30;7.05;;;2.53;;
34805;SDS011;65084;42.196;25.326;2023-11-18T10:30:58;3.38;;;2.05;;
34805;SDS011;65084;42.196;25.326;2023-11-18T10:33:28;6.72;;;1.25;;
34805;SDS011;65084;42.196;25.326;2023-11-18T10:36:18;6.22;;;0.80;;
34805;SDS011;65084;42.196;25.326;2023-11-18T10:38:47;1.25;;;0.90;;
34805;SDS011;65084;42.196;25.326;2023-11-18T10:41:17;2.00;;;1.23;;
34805;SDS011;65084;42.196;25.326;2023-11-18T10:43:45;2.60;;;1.15;;
34805;SDS011;65084;42.196;25.326;2023-11-18T10:46:13;1.90;;;1.40;;
34805;SDS011;65084;42.196;25.326;2023-11-18T10:48:41;2.30;;;1.15;;
34805;SDS011;65084;42.196;25.326;2023-11-18T10:51:09;1.98;;;0.80;;
34805;SDS011;65084;42.196;25.326;2023-11-18T10:53:39;1.20;;;1.10;;
34805;SDS011;65084;42.196;25.326;2023-11-18T10:56:18;1.25;;;1.02;;
34805;SDS011;65084;42.196;25.326;2023-11-18T10:58:51;5.88;;;1.40;;
34805;SDS011;65084;42.196;25.326;2023-11-18T11:01:26;3.40;;;1.38;;
34805;SDS011;65084;42.196;25.326;2023-11-18T11:03:54;10.23;;;1.08;;
34805;SDS011;65084;42.196;25.326;2023-11-18T11:06:22;3.22;;;2.22;;
34805;SDS011;65084;42.196;25.326;2023-11-18T11:08:51;5.30;;;1.10;;
34805;SDS011;65084;42.196;25.326;2023-11-18T11:11:20;1.48;;;1.25;;
34805;SDS011;65084;42.196;25.326;2023-11-18T11:13:49;1.00;;;1.00;;
34805;SDS011;65084;42.196;25.326;2023-11-18T11:16:18;0.88;;;0.85;;
34805;SDS011;65084;42.196;25.326;2023-11-18T11:18:47;1.63;;;0.80;;
34805;SDS011;65084;42.196;25.326;2023-11-18T11:21:19;0.82;;;0.82;;
34805;SDS011;65084;42.196;25.326;2023-11-18T11:23:50;2.40;;;1.42;;
34805;SDS011;65084;42.196;25.326;2023-11-18T11:26:26;3.67;;;1.23;;
34805;SDS011;65084;42.196;25.326;2023-11-18T11:29:01;6.07;;;0.88;;
34805;SDS011;65084;42.196;25.326;2023-11-18T11:31:30;3.72;;;0.70;;
34805;SDS011;65084;42.196;25.326;2023-11-18T11:33:59;1.00;;;0.93;;
34805;SDS011;65084;42.196;25.326;2023-11-18T11:36:30;1.05;;;0.90;;
34805;SDS011;65084;42.196;25.326;2023-11-18T11:39:00;105.25;;;45.30;;
34805;SDS011;65084;42.196;25.326;2023-11-18T11:41:30;88.38;;;38.67;;
34805;SDS011;65084;42.196;25.326;2023-11-18T11:43:59;11.90;;;10.55;;
34805;SDS011;65084;42.196;25.326;2023-11-18T11:46:31;7.78;;;6.43;;
34805;SDS011;65084;42.196;25.326;2023-11-18T11:49:00;5.60;;;5.10;;
34805;SDS011;65084;42.196;25.326;2023-11-18T11:51:39;2.97;;;1.30;;
34805;SDS011;65084;42.196;25.326;2023-11-18T11:54:09;6.25;;;5.65;;
34805;SDS011;65084;42.196;25.326;2023-11-18T11:56:42;5.45;;;1.50;;
34805;SDS011;65084;42.196;25.326;2023-11-18T11:59:12;4.65;;;3.47;;
34805;SDS011;65084;42.196;25.326;2023-11-18T12:01:40;2.15;;;1.15;;
34805;SDS011;65084;42.196;25.326;2023-11-18T12:04:11;5.45;;;2.63;;
34805;SDS011;65084;42.196;25.326;2023-11-18T12:06:46;5.90;;;2.20;;
34805;SDS011;65084;42.196;25.326;2023-11-18T12:09:13;4.32;;;2.33;;
34805;SDS011;65084;42.196;25.326;2023-11-18T12:11:46;1.50;;;1.00;;
34805;SDS011;65084;42.196;25.326;2023-11-18T12:14:15;2.42;;;1.50;;
34805;SDS011;65084;42.196;25.326;2023-11-18T12:17:06;4.50;;;3.08;;
34805;SDS011;65084;42.196;25.326;2023-11-18T12:19:35;3.83;;;3.17;;
34805;SDS011;65084;42.196;25.326;2023-11-18T12:22:10;5.70;;;1.75;;
34805;SDS011;65084;42.196;25.326;2023-11-18T12:24:43;1.58;;;1.17;;
34805;SDS011;65084;42.196;25.326;2023-11-18T12:27:13;4.45;;;3.78;;
34805;SDS011;65084;42.196;25.326;2023-11-18T12:29:43;7.25;;;2.20;;
34805;SDS011;65084;42.196;25.326;2023-11-18T12:32:10;8.20;;;5.35;;
34805;SDS011;65084;42.196;25.326;2023-11-18T12:34:51;2.28;;;1.75;;
34805;SDS011;65084;42.196;25.326;2023-11-18T12:37:28;2.20;;;1.80;;
34805;SDS011;65084;42.196;25.326;2023-11-18T12:40:15;5.47;;;2.88;;
34805;SDS011;65084;42.196;25.326;2023-11-18T12:43:04;2.20;;;1.23;;
34805;SDS011;65084;42.196;25.326;2023-11-18T12:45:42;1.40;;;1.30;;
34805;SDS011;65084;42.196;25.326;2023-11-18T12:48:13;1.55;;;1.10;;
34805;SDS011;65084;42.196;25.326;2023-11-18T12:50:41;1.10;;;1.00;;
34805;SDS011;65084;42.196;25.326;2023-11-18T12:53:11;1.33;;;1.10;;
34805;SDS011;65084;42.196;25.326;2023-11-18T12:55:40;4.45;;;1.80;;
34805;SDS011;65084;42.196;25.326;2023-11-18T12:58:09;4.78;;;1.75;;
34805;SDS011;65084;42.196;25.326;2023-11-18T13:00:39;5.40;;;2.72;;
34805;SDS011;65084;42.196;25.326;2023-11-18T13:03:08;4.55;;;2.15;;
34805;SDS011;65084;42.196;25.326;2023-11-18T13:05:36;3.42;;;2.30;;
34805;SDS011;65084;42.196;25.326;2023-11-18T13:08:03;2.47;;;2.28;;
34805;SDS011;65084;42.196;25.326;2023-11-18T13:10:32;6.45;;;4.45;;
34805;SDS011;65084;42.196;25.326;2023-11-18T13:12:59;3.05;;;2.45;;
34805;SDS011;65084;42.196;25.326;2023-11-18T13:15:28;4.22;;;2.03;;
34805;SDS011;65084;42.196;25.326;2023-11-18T13:17:57;1.60;;;1.50;;
34805;SDS011;65084;42.196;25.326;2023-11-18T13:20:24;2.83;;;2.00;;
34805;SDS011;65084;42.196;25.326;2023-11-18T13:22:51;1.52;;;1.42;;
34805;SDS011;65084;42.196;25.326;2023-11-18T13:25:21;1.85;;;1.02;;
34805;SDS011;65084;42.196;25.326;2023-11-18T13:27:48;2.58;;;1.50;;
34805;SDS011;65084;42.196;25.326;2023-11-18T13:30:16;0.75;;;0.75;;
34805;SDS011;65084;42.196;25.326;2023-11-18T13:32:47;1.20;;;0.80;;
34805;SDS011;65084;42.196;25.326;2023-11-18T13:35:16;0.80;;;0.80;;
34805;SDS011;65084;42.196;25.326;2023-11-18T13:37:46;0.85;;;0.63;;
34805;SDS011;65084;42.196;25.326;2023-11-18T13:40:14;3.15;;;1.00;;
34805;SDS011;65084;42.196;25.326;2023-11-18T13:42:43;9.32;;;5.18;;
34805;SDS011;65084;42.196;25.326;2023-11-18T13:45:12;56.08;;;24.90;;
34805;SDS011;65084;42.196;25.326;2023-11-18T13:47:55;13.35;;;11.23;;
34805;SDS011;65084;42.196;25.326;2023-11-18T13:50:23;43.88;;;31.20;;
34805;SDS011;65084;42.196;25.326;2023-11-18T13:52:52;33.53;;;26.10;;
34805;SDS011;65084;42.196;25.326;2023-11-18T13:55:19;13.25;;;11.85;;
34805;SDS011;65084;42.196;25.326;2023-11-18T13:57:52;4.05;;;3.45;;
34805;SDS011;65084;42.196;25.326;2023-11-18T14:00:23;6.18;;;1.45;;
34805;SDS011;65084;42.196;25.326;2023-11-18T14:02:52;1.52;;;0.90;;
34805;SDS011;65084;42.196;25.326;2023-11-18T14:05:22;2.95;;;1.15;;
34805;SDS011;65084;42.196;25.326;2023-11-18T14:07:51;1.55;;;1.30;;
34805;SDS011;65084;42.196;25.326;2023-11-18T14:10:21;5.68;;;0.93;;
34805;SDS011;65084;42.196;25.326;2023-11-18T14:12:59;2.50;;;0.60;;
34805;SDS011;65084;42.196;25.326;2023-11-18T14:15:27;1.33;;;1.23;;
34805;SDS011;65084;42.196;25.326;2023-11-18T14:17:55;1.40;;;0.73;;
34805;SDS011;65084;42.196;25.326;2023-11-18T14:20:24;9.05;;;0.90;;
34805;SDS011;65084;42.196;25.326;2023-11-18T14:22:51;0.55;;;0.50;;
34805;SDS011;65084;42.196;25.326;2023-11-18T14:25:19;4.07;;;1.13;;
34805;SDS011;65084;42.196;25.326;2023-11-18T14:27:49;3.33;;;1.17;;
34805;SDS011;65084;42.196;25.326;2023-11-18T14:30:16;0.82;;;0.80;;
34805;SDS011;65084;42.196;25.326;2023-11-18T14:32:44;10.95;;;1.38;;
34805;SDS011;65084;42.196;25.326;2023-11-18T14:35:12;5.80;;;3.25;;
34805;SDS011;65084;42.196;25.326;2023-11-18T14:37:43;6.78;;;2.00;;
34805;SDS011;65084;42.196;25.326;2023-11-18T14:40:11;3.17;;;2.53;;
34805;SDS011;65084;42.196;25.326;2023-11-18T14:42:40;2.38;;;2.03;;
34805;SDS011;65084;42.196;25.326;2023-11-18T14:45:10;1.83;;;1.67;;